Time;durP1;ratioP1;P1;durP2;ratioP2;P2;SDS_P1;SDS_P2;PMS_P1;PMS_P2;Temp;Humidity;BMP_temperature;BMP_pressure;BME280_temperature;BME280_humidity;BME280_pressure;Samples;Min_cycle;Max_cycle;Signal;HPM_P1;HPM_P2
2023/09/07 00:00:05;;;;;;;8.98;4.82;;;17.20;99.90;;;;;;5096903;28;20028;-89
2023/09/07 00:02:31;;;;;;;9.65;5.68;;;17.20;99.90;;;;;;5102861;28;20023;-88
2023/09/07 00:04:57;;;;;;;9.75;5.32;;;17.20;99.90;;;;;;5100370;28;20034;-88
2023/09/07 00:07:23;;;;;;;7.25;4.90;;;17.10;99.90;;;;;;5104863;28;20483;-88
2023/09/07 00:09:49;;;;;;;5.47;4.90;;;17.10;99.90;;;;;;5106615;28;20027;-88
2023/09/07 00:12:15;;;;;;;4.90;4.25;;;17.10;99.90;;;;;;5102510;28;20027;-88
2023/09/07 00:14:40;;;;;;;13.85;5.72;;;17.00;99.90;;;;;;5104197;28;20027;-88
2023/09/07 00:17:07;;;;;;;6.95;5.35;;;17.00;99.90;;;;;;5100423;28;20028;-88
2023/09/07 00:19:36;;;;;;;9.63;5.20;;;17.00;99.90;;;;;;5104377;28;20482;-88
2023/09/07 00:22:03;;;;;;;8.32;5.90;;;16.90;99.90;;;;;;5105527;28;20031;-88
2023/09/07 00:24:28;;;;;;;9.20;5.70;;;16.90;99.90;;;;;;5104527;28;20094;-88
2023/09/07 00:26:54;;;;;;;9.73;5.68;;;16.90;99.90;;;;;;5103638;28;20091;-88
2023/09/07 00:29:20;;;;;;;11.32;5.53;;;16.80;99.90;;;;;;5103824;28;20027;-87
2023/09/07 00:31:46;;;;;;;7.35;5.45;;;16.80;99.90;;;;;;5102912;28;20039;-87
2023/09/07 00:34:11;;;;;;;5.97;4.72;;;16.70;99.90;;;;;;5096445;28;20028;-88
2023/09/07 00:36:37;;;;;;;9.13;4.68;;;16.70;99.90;;;;;;5103998;28;20114;-88
2023/09/07 00:39:03;;;;;;;14.00;5.47;;;16.70;99.90;;;;;;5105285;28;20024;-88
2023/09/07 00:41:28;;;;;;;9.18;5.68;;;16.70;99.90;;;;;;5104570;28;20520;-89
2023/09/07 00:43:55;;;;;;;6.85;5.05;;;16.60;99.90;;;;;;5101817;28;20027;-88
2023/09/07 00:46:21;;;;;;;8.43;5.28;;;16.50;99.90;;;;;;5106617;28;20031;-88
2023/09/07 00:48:48;;;;;;;9.25;5.45;;;16.60;99.90;;;;;;5103180;28;20423;-88
2023/09/07 00:51:14;;;;;;;9.00;5.38;;;16.50;99.90;;;;;;5102090;28;20069;-88
2023/09/07 00:53:40;;;;;;;9.75;5.47;;;16.50;99.90;;;;;;5103497;28;20465;-88
2023/09/07 00:56:07;;;;;;;9.60;5.47;;;16.50;99.90;;;;;;5101547;28;20119;-88
2023/09/07 00:58:32;;;;;;;7.32;4.65;;;16.50;99.90;;;;;;5093199;28;20517;-88
2023/09/07 01:00:59;;;;;;;9.63;5.15;;;16.50;99.90;;;;;;5104611;28;20069;-87
2023/09/07 01:03:25;;;;;;;7.00;5.10;;;16.50;99.90;;;;;;5105737;28;20019;-88
2023/09/07 01:06:03;;;;;;;9.32;5.07;;;16.40;99.90;;;;;;5090834;28;20093;-87
2023/09/07 01:08:35;;;;;;;10.38;5.40;;;16.50;99.90;;;;;;5103196;28;20701;-88
2023/09/07 01:11:01;;;;;;;9.40;5.38;;;16.40;99.90;;;;;;5100202;28;20027;-88
2023/09/07 01:13:26;;;;;;;10.80;5.47;;;16.40;99.90;;;;;;5099513;28;20396;-88
2023/09/07 01:15:52;;;;;;;8.85;5.90;;;16.30;99.90;;;;;;5100042;27;20426;-88
2023/09/07 01:18:19;;;;;;;7.63;5.22;;;16.30;99.90;;;;;;5097571;28;20473;-88
2023/09/07 01:20:46;;;;;;;9.82;5.82;;;16.30;99.90;;;;;;5091772;28;20024;-88
2023/09/07 01:23:13;;;;;;;13.60;5.65;;;16.20;99.90;;;;;;5099024;28;20031;-88
2023/09/07 01:25:40;;;;;;;6.88;5.15;;;16.20;99.90;;;;;;5099735;28;20034;-88
2023/09/07 01:28:06;;;;;;;8.10;5.85;;;16.20;99.90;;;;;;5101076;28;20026;-88
2023/09/07 01:30:37;;;;;;;9.80;5.45;;;16.10;99.90;;;;;;5103036;28;20092;-88
2023/09/07 01:33:03;;;;;;;10.23;6.40;;;16.10;99.90;;;;;;5104483;28;20056;-88
2023/09/07 01:35:32;;;;;;;9.43;6.30;;;16.20;99.90;;;;;;5100111;28;20106;-88
2023/09/07 01:37:58;;;;;;;8.40;5.55;;;16.10;99.90;;;;;;5101439;28;20034;-87
2023/09/07 01:40:23;;;;;;;11.10;5.72;;;16.10;99.90;;;;;;5101786;28;20035;-88
2023/09/07 01:42:49;;;;;;;8.40;5.43;;;16.10;99.90;;;;;;5099478;28;20075;-88
2023/09/07 01:45:14;;;;;;;7.68;5.38;;;16.10;99.90;;;;;;5105174;28;20024;-87
2023/09/07 01:47:40;;;;;;;13.25;5.70;;;16.10;99.90;;;;;;5101208;28;20024;-87
2023/09/07 01:50:07;;;;;;;7.93;5.70;;;16.20;99.90;;;;;;5097931;28;20046;-88
2023/09/07 01:52:32;;;;;;;7.97;5.97;;;16.10;99.90;;;;;;5094879;28;20036;-87
2023/09/07 01:54:58;;;;;;;7.95;5.43;;;16.10;99.90;;;;;;5099142;28;20033;-87
2023/09/07 01:57:25;;;;;;;8.10;5.28;;;16.10;99.90;;;;;;5105509;28;20107;-87
2023/09/07 01:59:50;;;;;;;7.70;5.25;;;16.10;99.90;;;;;;5101854;28;20427;-88
2023/09/07 02:02:16;;;;;;;8.18;5.45;;;16.00;99.90;;;;;;5100335;28;20027;-87
2023/09/07 02:04:45;;;;;;;12.50;5.78;;;15.90;99.90;;;;;;5098211;28;20096;-87
2023/09/07 02:07:11;;;;;;;7.97;5.45;;;16.00;99.90;;;;;;5103807;28;20035;-87
2023/09/07 02:09:41;;;;;;;8.63;5.60;;;16.00;99.90;;;;;;5104293;28;20028;-88
2023/09/07 02:12:07;;;;;;;8.63;5.43;;;16.00;99.90;;;;;;5102053;28;20077;-87
2023/09/07 02:14:32;;;;;;;11.43;6.22;;;15.90;99.90;;;;;;5095113;28;20048;-87
2023/09/07 02:16:58;;;;;;;7.63;5.78;;;15.90;99.90;;;;;;5101037;28;20034;-87
2023/09/07 02:19:25;;;;;;;12.45;6.15;;;15.90;99.90;;;;;;5100780;28;20031;-87
2023/09/07 02:21:52;;;;;;;12.50;6.00;;;15.90;99.90;;;;;;5103548;28;20055;-88
2023/09/07 02:24:18;;;;;;;19.08;6.20;;;15.80;99.90;;;;;;5101504;28;20080;-87
2023/09/07 02:26:45;;;;;;;11.70;5.70;;;15.90;99.90;;;;;;5102392;28;20619;-87
2023/09/07 02:29:14;;;;;;;8.55;5.45;;;15.80;99.90;;;;;;5099343;28;20054;-88
2023/09/07 02:31:40;;;;;;;9.30;6.32;;;15.80;99.90;;;;;;5100312;28;20463;-87
2023/09/07 02:34:06;;;;;;;8.00;5.82;;;15.80;99.90;;;;;;5102617;28;20489;-87
2023/09/07 02:36:33;;;;;;;8.23;6.00;;;15.80;99.90;;;;;;5107185;28;20028;-87
2023/09/07 02:38:58;;;;;;;8.27;5.90;;;15.80;99.90;;;;;;5101697;28;20667;-87
2023/09/07 02:41:24;;;;;;;13.13;5.45;;;15.80;99.90;;;;;;5105575;28;20024;-87
2023/09/07 02:43:49;;;;;;;9.25;5.93;;;15.70;99.90;;;;;;5104689;28;20024;-87
2023/09/07 02:46:16;;;;;;;8.70;5.72;;;15.70;99.90;;;;;;5104018;28;20118;-87
2023/09/07 02:48:41;;;;;;;12.10;5.70;;;15.70;99.90;;;;;;5105913;28;20031;-87
2023/09/07 02:51:10;;;;;;;10.27;6.20;;;15.70;99.90;;;;;;5104181;28;20047;-87
2023/09/07 02:53:35;;;;;;;7.65;5.55;;;15.60;99.90;;;;;;5103989;28;20028;-87
2023/09/07 02:56:04;;;;;;;14.05;6.00;;;15.60;99.90;;;;;;5104098;28;20029;-87
2023/09/07 02:58:31;;;;;;;13.80;6.65;;;15.60;99.90;;;;;;5106023;28;20054;-86
2023/09/07 03:00:56;;;;;;;14.90;6.47;;;15.60;99.90;;;;;;5104670;28;20392;-87
2023/09/07 03:03:22;;;;;;;11.13;6.03;;;15.50;99.90;;;;;;5107141;28;20031;-88
2023/09/07 03:05:47;;;;;;;14.35;6.53;;;15.50;99.90;;;;;;5100202;28;20051;-87
2023/09/07 03:08:13;;;;;;;9.50;6.38;;;15.50;99.90;;;;;;5100789;28;20020;-87
2023/09/07 03:10:44;;;;;;;11.45;7.03;;;15.50;99.90;;;;;;5101885;28;20042;-87
2023/09/07 03:13:09;;;;;;;8.18;6.15;;;15.50;99.90;;;;;;5103833;28;20134;-88
2023/09/07 03:15:35;;;;;;;10.27;6.07;;;15.40;99.90;;;;;;5103346;28;20122;-88
2023/09/07 03:18:01;;;;;;;8.05;5.60;;;15.40;99.90;;;;;;5101887;28;20028;-88
2023/09/07 03:20:27;;;;;;;9.35;6.20;;;15.40;99.90;;;;;;5101221;28;20104;-88
2023/09/07 03:22:52;;;;;;;10.02;6.00;;;15.40;99.90;;;;;;5100180;28;21107;-87
2023/09/07 03:25:18;;;;;;;8.55;5.47;;;15.40;99.90;;;;;;5097348;27;20464;-87
2023/09/07 03:27:44;;;;;;;13.35;5.95;;;15.40;99.90;;;;;;5101775;28;20473;-86
2023/09/07 03:30:13;;;;;;;13.95;6.20;;;15.40;99.90;;;;;;5104232;27;20532;-85
2023/09/07 03:32:42;;;;;;;8.07;5.68;;;15.40;99.90;;;;;;5102739;28;20032;-87
2023/09/07 03:35:09;;;;;;;8.68;5.90;;;15.40;99.90;;;;;;5104046;28;20123;-88
2023/09/07 03:37:37;;;;;;;8.90;5.97;;;15.40;99.90;;;;;;5105767;27;20034;-86
2023/09/07 03:40:06;;;;;;;8.38;6.18;;;15.40;99.90;;;;;;5102231;28;20023;-87
2023/09/07 03:42:31;;;;;;;6.85;5.72;;;15.40;99.90;;;;;;5099928;28;20251;-87
2023/09/07 03:45:00;;;;;;;7.43;6.10;;;15.40;99.90;;;;;;5102255;28;20020;-88
2023/09/07 03:47:29;;;;;;;7.82;5.90;;;15.30;99.90;;;;;;5105782;28;20024;-89
2023/09/07 03:50:01;;;;;;;10.43;6.32;;;15.30;99.90;;;;;;5100542;28;20454;-87
2023/09/07 03:52:30;;;;;;;11.93;5.90;;;15.30;99.90;;;;;;5098736;28;20063;-88
2023/09/07 03:55:00;;;;;;;12.75;6.30;;;15.30;99.90;;;;;;5101337;28;20031;-87
2023/09/07 03:57:26;;;;;;;10.80;6.57;;;15.30;99.90;;;;;;5105125;28;20034;-87
2023/09/07 03:59:52;;;;;;;8.35;6.28;;;15.20;99.90;;;;;;5101996;28;20059;-88
2023/09/07 04:02:18;;;;;;;8.75;6.15;;;15.20;99.90;;;;;;5105767;28;20055;-88
2023/09/07 04:04:48;;;;;;;8.30;6.38;;;15.20;99.90;;;;;;5104124;28;20467;-87
2023/09/07 04:07:13;;;;;;;7.75;5.70;;;15.30;99.90;;;;;;5103623;28;20691;-88
2023/09/07 04:09:45;;;;;;;8.68;6.25;;;15.30;99.90;;;;;;5106313;28;20030;-87
2023/09/07 04:12:15;;;;;;;7.47;5.88;;;15.30;99.90;;;;;;5100287;28;20047;-88
2023/09/07 04:14:42;;;;;;;8.63;6.00;;;15.20;99.90;;;;;;5101341;28;20035;-87
2023/09/07 04:17:07;;;;;;;9.30;5.85;;;15.30;99.90;;;;;;5106923;28;20027;-88
2023/09/07 04:19:36;;;;;;;6.15;5.35;;;15.20;99.90;;;;;;5104531;28;20114;-87
2023/09/07 04:22:02;;;;;;;7.30;6.00;;;15.20;99.90;;;;;;5100942;28;20152;-87
2023/09/07 04:24:27;;;;;;;8.63;5.57;;;15.20;99.90;;;;;;5106130;28;20035;-87
2023/09/07 04:26:53;;;;;;;10.55;6.10;;;15.20;99.90;;;;;;5104307;28;20023;-87
2023/09/07 04:29:19;;;;;;;10.07;5.53;;;15.20;99.90;;;;;;5100708;27;20034;-87
2023/09/07 04:31:44;;;;;;;8.27;6.40;;;15.20;99.90;;;;;;5099930;28;20065;-87
2023/09/07 04:34:13;;;;;;;7.43;5.97;;;15.20;99.90;;;;;;5101914;28;20104;-87
2023/09/07 04:36:38;;;;;;;11.25;6.47;;;15.10;99.90;;;;;;5102905;28;20077;-87
2023/09/07 04:39:04;;;;;;;10.02;6.32;;;15.10;99.90;;;;;;5100753;28;20468;-87
2023/09/07 04:41:29;;;;;;;9.15;6.32;;;15.10;99.90;;;;;;5094849;28;20030;-87
2023/09/07 04:43:55;;;;;;;9.45;6.05;;;15.10;99.90;;;;;;5099076;28;20039;-87
2023/09/07 04:46:22;;;;;;;9.40;5.85;;;15.10;99.90;;;;;;5101644;28;20041;-87
2023/09/07 04:48:48;;;;;;;8.73;6.53;;;15.10;99.90;;;;;;5100057;28;20034;-86
2023/09/07 04:51:15;;;;;;;7.00;5.95;;;15.10;99.90;;;;;;5102700;28;20460;-87
2023/09/07 04:53:40;;;;;;;9.73;6.10;;;15.10;99.90;;;;;;5095107;28;20530;-86
2023/09/07 04:56:10;;;;;;;8.57;5.70;;;15.10;99.90;;;;;;5104326;28;20059;-87
2023/09/07 04:58:36;;;;;;;7.05;5.70;;;15.10;99.90;;;;;;5102516;28;20026;-87
2023/09/07 05:01:06;;;;;;;8.25;6.25;;;15.10;99.90;;;;;;5099737;28;20110;-87
2023/09/07 05:03:33;;;;;;;11.77;6.30;;;15.10;99.90;;;;;;5103268;28;20437;-87
2023/09/07 05:05:59;;;;;;;7.35;5.53;;;15.10;99.90;;;;;;5104519;28;20028;-87
2023/09/07 05:08:25;;;;;;;10.73;5.95;;;15.10;99.90;;;;;;5101715;28;20530;-87
2023/09/07 05:11:03;;;;;;;7.88;5.95;;;15.10;99.90;;;;;;5101485;28;20036;-87
2023/09/07 05:13:30;;;;;;;14.32;6.50;;;15.20;99.90;;;;;;5095414;28;20032;-87
2023/09/07 05:15:57;;;;;;;12.45;6.20;;;15.20;99.90;;;;;;5097834;28;20840;-86
2023/09/07 05:18:23;;;;;;;8.98;6.07;;;15.20;99.90;;;;;;5100492;28;20032;-87
2023/09/07 05:20:51;;;;;;;7.78;5.70;;;15.20;99.90;;;;;;5106211;28;20111;-87
2023/09/07 05:23:18;;;;;;;14.65;7.05;;;15.20;99.90;;;;;;5105468;28;20074;-87
2023/09/07 05:25:45;;;;;;;9.15;6.35;;;15.20;99.90;;;;;;5099118;28;20028;-87
2023/09/07 05:28:13;;;;;;;9.52;6.30;;;15.30;99.90;;;;;;5102007;28;20038;-86
2023/09/07 05:30:39;;;;;;;9.23;6.40;;;15.30;99.90;;;;;;5094666;28;20035;-87
2023/09/07 05:33:04;;;;;;;10.18;6.40;;;15.30;99.90;;;;;;5103372;28;20061;-87
2023/09/07 05:35:32;;;;;;;10.05;6.25;;;15.40;99.90;;;;;;5104363;28;20027;-87
2023/09/07 05:37:58;;;;;;;9.63;6.65;;;15.40;99.90;;;;;;5098831;28;20043;-87
2023/09/07 05:40:24;;;;;;;12.63;6.75;;;15.40;99.90;;;;;;5099199;28;20054;-87
2023/09/07 05:42:49;;;;;;;7.75;5.80;;;15.50;99.90;;;;;;5101299;28;20023;-87
2023/09/07 05:45:15;;;;;;;7.82;6.00;;;15.50;99.90;;;;;;5102123;28;20043;-87
2023/09/07 05:47:41;;;;;;;13.43;6.30;;;15.60;99.90;;;;;;5102683;28;20019;-87
2023/09/07 05:50:07;;;;;;;14.43;6.55;;;15.70;99.90;;;;;;5106303;28;20084;-87
2023/09/07 05:52:32;;;;;;;9.70;6.97;;;15.70;99.90;;;;;;5104394;28;20108;-87
2023/09/07 05:54:58;;;;;;;8.50;5.32;;;15.70;99.90;;;;;;5102985;28;20059;-87
2023/09/07 05:57:24;;;;;;;10.48;5.60;;;15.80;99.90;;;;;;5103274;28;20031;-87
2023/09/07 05:59:49;;;;;;;10.45;6.32;;;15.80;99.90;;;;;;5100285;28;20036;-87
2023/09/07 06:02:15;;;;;;;9.95;5.80;;;15.90;99.90;;;;;;5102611;28;20042;-87
2023/09/07 06:04:41;;;;;;;7.82;5.80;;;16.00;99.90;;;;;;5103002;28;20031;-87
2023/09/07 06:07:06;;;;;;;7.95;5.57;;;16.00;99.90;;;;;;5102061;28;20028;-87
2023/09/07 06:09:32;;;;;;;7.43;5.30;;;16.10;99.90;;;;;;5105284;28;20077;-88
2023/09/07 06:11:59;;;;;;;7.43;5.88;;;16.20;99.90;;;;;;5106383;28;20490;-87
2023/09/07 06:14:24;;;;;;;7.43;5.78;;;16.30;99.90;;;;;;5106119;28;20465;-88
2023/09/07 06:16:50;;;;;;;8.77;5.60;;;16.30;99.90;;;;;;5106473;28;20031;-87
2023/09/07 06:19:15;;;;;;;6.70;5.50;;;16.40;99.90;;;;;;5105465;28;20034;-88
2023/09/07 06:21:41;;;;;;;11.90;6.93;;;16.40;99.90;;;;;;5091246;28;20504;-87
2023/09/07 06:24:07;;;;;;;11.68;5.95;;;16.50;99.90;;;;;;5106575;28;20743;-87
2023/09/07 06:26:33;;;;;;;9.95;6.07;;;16.60;99.90;;;;;;5096444;28;20040;-87
2023/09/07 06:28:59;;;;;;;14.48;6.97;;;16.60;99.90;;;;;;5106970;28;20477;-87
2023/09/07 06:31:24;;;;;;;16.25;7.55;;;16.70;99.90;;;;;;5106678;28;20043;-87
2023/09/07 06:33:50;;;;;;;12.95;7.45;;;16.70;99.90;;;;;;5106663;28;20472;-87
2023/09/07 06:36:15;;;;;;;9.45;6.93;;;16.70;99.90;;;;;;5104080;28;20051;-88
2023/09/07 06:38:41;;;;;;;9.80;6.90;;;16.80;99.90;;;;;;5105481;28;20069;-87
2023/09/07 06:41:09;;;;;;;9.68;6.15;;;16.90;99.90;;;;;;5091530;28;20016;-87
2023/09/07 06:43:36;;;;;;;13.65;6.60;;;16.90;99.90;;;;;;5094023;28;20048;-87
2023/09/07 06:46:10;;;;;;;12.35;7.32;;;17.00;99.90;;;;;;5104459;28;20030;-88
2023/09/07 06:48:36;;;;;;;43.25;9.63;;;17.10;99.90;;;;;;5106765;28;21268;-87
2023/09/07 06:51:06;;;;;;;52.28;10.00;;;17.20;99.90;;;;;;5107647;28;20381;-86
2023/09/07 06:53:32;;;;;;;23.05;8.23;;;17.20;99.90;;;;;;5106652;28;20024;-86
2023/09/07 06:56:02;;;;;;;18.42;8.48;;;17.30;99.90;;;;;;5105160;28;20366;-86
2023/09/07 06:58:28;;;;;;;17.88;8.90;;;17.40;99.90;;;;;;5101738;28;20436;-87
2023/09/07 07:01:12;;;;;;;246.43;27.83;;;17.40;99.90;;;;;;5105907;28;20032;-87
2023/09/07 07:03:37;;;;;;;123.65;18.77;;;17.50;99.90;;;;;;5107217;28;20057;-88
2023/09/07 07:06:03;;;;;;;56.78;11.38;;;17.50;99.90;;;;;;5104160;28;20054;-88
2023/09/07 07:08:30;;;;;;;35.88;9.98;;;17.60;99.90;;;;;;5106099;28;20475;-88
2023/09/07 07:10:55;;;;;;;26.88;8.55;;;17.60;99.90;;;;;;5105589;28;20039;-87
2023/09/07 07:13:23;;;;;;;20.73;7.82;;;17.60;99.90;;;;;;5104653;28;20039;-88
2023/09/07 07:15:49;;;;;;;29.83;9.20;;;17.60;99.90;;;;;;5107372;28;20081;-88
2023/09/07 07:18:16;;;;;;;19.48;10.32;;;17.60;99.90;;;;;;5106813;28;20028;-88
2023/09/07 07:20:43;;;;;;;29.27;13.10;;;17.60;99.90;;;;;;5106535;28;20284;-87
2023/09/07 07:23:09;;;;;;;38.00;18.02;;;17.70;99.90;;;;;;5103016;28;20024;-88
2023/09/07 07:25:36;;;;;;;81.47;18.65;;;17.70;99.90;;;;;;5098295;28;20092;-88
2023/09/07 07:28:07;;;;;;;113.70;20.77;;;17.80;99.90;;;;;;5103230;28;20040;-87
2023/09/07 07:30:38;;;;;;;134.05;17.05;;;17.80;99.90;;;;;;5096771;28;20031;-88
2023/09/07 07:33:04;;;;;;;72.57;13.65;;;17.90;99.90;;;;;;5107131;28;20472;-87
2023/09/07 07:35:36;;;;;;;34.67;10.02;;;17.90;99.90;;;;;;5098462;28;20034;-88
2023/09/07 07:38:03;;;;;;;30.35;9.98;;;17.90;99.90;;;;;;5100993;28;20126;-88
2023/09/07 07:40:30;;;;;;;36.63;9.68;;;18.00;99.90;;;;;;5102800;28;20068;-88
2023/09/07 07:42:55;;;;;;;24.40;9.40;;;18.00;99.90;;;;;;5102592;28;20053;-87
2023/09/07 07:45:21;;;;;;;22.73;10.80;;;18.10;99.90;;;;;;5103694;28;20016;-89
2023/09/07 07:47:49;;;;;;;24.52;9.90;;;18.10;99.90;;;;;;5105852;28;20149;-89
2023/09/07 07:50:16;;;;;;;27.05;9.18;;;18.30;99.90;;;;;;5106483;28;20055;-88
2023/09/07 07:52:42;;;;;;;27.70;8.55;;;18.40;99.90;;;;;;5104890;28;20027;-89
2023/09/07 07:55:09;;;;;;;23.63;8.63;;;18.40;99.90;;;;;;5098434;28;20040;-88
2023/09/07 07:57:36;;;;;;;15.38;7.75;;;18.50;99.90;;;;;;5105095;28;20081;-87
2023/09/07 08:00:04;;;;;;;17.17;7.30;;;18.60;99.90;;;;;;5105910;28;20065;-88
2023/09/07 08:02:30;;;;;;;21.50;9.52;;;18.60;99.90;;;;;;5104536;28;20486;-89
2023/09/07 08:04:56;;;;;;;11.75;7.60;;;18.70;99.90;;;;;;5106066;28;20019;-88
2023/09/07 08:07:21;;;;;;;24.88;8.52;;;18.70;99.90;;;;;;5100122;28;20027;-88
2023/09/07 08:09:47;;;;;;;18.90;8.05;;;18.80;99.90;;;;;;5103229;28;20035;-88
2023/09/07 08:12:13;;;;;;;16.67;9.30;;;18.90;99.90;;;;;;5103700;28;20058;-88
2023/09/07 08:14:38;;;;;;;11.25;7.45;;;18.90;99.90;;;;;;5104670;28;20028;-87
2023/09/07 08:17:04;;;;;;;16.35;8.60;;;19.00;99.90;;;;;;5104067;28;20024;-87
2023/09/07 08:19:30;;;;;;;16.48;9.52;;;19.10;99.90;;;;;;5106083;28;20008;-88
2023/09/07 08:21:58;;;;;;;14.82;9.60;;;19.10;99.90;;;;;;5104626;28;20028;-87
2023/09/07 08:24:24;;;;;;;16.45;8.70;;;19.20;99.90;;;;;;5105227;28;20114;-89
2023/09/07 08:26:54;;;;;;;12.88;8.50;;;19.30;99.90;;;;;;5103099;28;20028;-87
2023/09/07 08:29:20;;;;;;;14.93;8.35;;;19.40;99.90;;;;;;5102841;28;20024;-88
2023/09/07 08:31:48;;;;;;;16.10;7.93;;;19.50;99.90;;;;;;5100970;28;20040;-87
2023/09/07 08:34:14;;;;;;;14.00;8.82;;;19.50;99.90;;;;;;5101824;28;20024;-87
2023/09/07 08:36:40;;;;;;;10.00;7.85;;;19.60;99.90;;;;;;5104795;28;20077;-88
2023/09/07 08:39:09;;;;;;;18.42;9.00;;;19.70;99.90;;;;;;5095544;28;20027;-88
2023/09/07 08:41:43;;;;;;;11.98;7.88;;;19.70;99.90;;;;;;5103711;28;20030;-86
2023/09/07 08:44:17;;;;;;;16.17;8.20;;;19.80;99.90;;;;;;5105061;28;20020;-87
2023/09/07 08:46:43;;;;;;;15.00;8.32;;;19.90;99.90;;;;;;5102240;28;20039;-88
2023/09/07 08:49:11;;;;;;;14.30;8.85;;;20.00;99.90;;;;;;5099612;28;20366;-87
2023/09/07 08:51:37;;;;;;;14.32;8.60;;;20.10;99.90;;;;;;5102650;28;20035;-88
2023/09/07 08:54:04;;;;;;;15.98;8.95;;;20.20;99.90;;;;;;5104538;28;20020;-88
2023/09/07 08:56:30;;;;;;;14.80;8.40;;;20.20;99.90;;;;;;5102812;28;20041;-87
2023/09/07 08:58:56;;;;;;;14.27;7.10;;;20.30;99.90;;;;;;5102483;28;20039;-88
2023/09/07 09:01:22;;;;;;;10.60;6.93;;;20.40;99.90;;;;;;5097763;28;20186;-88
2023/09/07 09:03:51;;;;;;;7.95;6.22;;;20.50;99.90;;;;;;5101042;28;20031;-87
2023/09/07 09:06:18;;;;;;;13.32;8.27;;;20.50;99.90;;;;;;5091722;28;20028;-86
2023/09/07 09:08:44;;;;;;;21.15;7.95;;;20.70;99.90;;;;;;5098855;28;20051;-87
2023/09/07 09:11:10;;;;;;;13.07;6.97;;;20.70;99.90;;;;;;5105065;28;20055;-87
2023/09/07 09:13:36;;;;;;;19.65;6.68;;;20.90;99.90;;;;;;5104376;28;20903;-87
2023/09/07 09:16:02;;;;;;;14.55;6.38;;;20.90;99.90;;;;;;5104228;28;20047;-86
2023/09/07 09:18:28;;;;;;;8.50;5.75;;;21.00;99.90;;;;;;5097937;28;20036;-88
2023/09/07 09:21:00;;;;;;;19.88;8.10;;;21.10;99.90;;;;;;5101586;28;20023;-88
2023/09/07 09:23:37;;;;;;;11.32;6.38;;;21.20;99.90;;;;;;5102178;28;20035;-89
2023/09/07 09:26:04;;;;;;;22.20;5.95;;;21.30;99.90;;;;;;5105250;28;20477;-88
2023/09/07 09:28:35;;;;;;;12.07;5.57;;;21.30;99.90;;;;;;5103488;28;20120;-89
2023/09/07 09:31:03;;;;;;;26.95;7.40;;;21.40;99.90;;;;;;5103696;28;20473;-87
2023/09/07 09:33:33;;;;;;;27.00;7.30;;;21.50;99.90;;;;;;5103595;28;20055;-87
2023/09/07 09:35:59;;;;;;;615.83;54.60;;;21.60;99.90;;;;;;5097119;28;20027;-87
2023/09/07 09:38:25;;;;;;;123.32;19.25;;;21.70;99.90;;;;;;5102043;28;20106;-88
2023/09/07 09:40:51;;;;;;;471.95;53.03;;;21.80;99.90;;;;;;5103856;28;20476;-87
2023/09/07 09:43:19;;;;;;;143.15;16.50;;;21.90;99.90;;;;;;5102656;28;20107;-87
2023/09/07 09:45:45;;;;;;;331.52;36.17;;;22.00;99.90;;;;;;5094676;28;20035;-88
2023/09/07 09:48:11;;;;;;;86.90;12.10;;;22.20;99.90;;;;;;5086653;28;20110;-87
2023/09/07 09:50:39;;;;;;;9.55;3.95;;;22.30;99.90;;;;;;5101595;28;20082;-86
2023/09/07 09:53:07;;;;;;;6.63;3.90;;;22.40;99.90;;;;;;5105002;28;20038;-88
2023/09/07 09:55:36;;;;;;;21.10;4.53;;;22.50;99.90;;;;;;5104464;28;20545;-88
2023/09/07 09:58:02;;;;;;;11.25;4.07;;;22.60;99.90;;;;;;5104942;28;20434;-89
2023/09/07 10:00:29;;;;;;;8.90;4.40;;;22.80;99.90;;;;;;5101886;28;20024;-90
2023/09/07 10:03:06;;;;;;;21.17;5.35;;;22.90;99.90;;;;;;5099487;28;20522;-87
2023/09/07 10:05:34;;;;;;;12.98;5.63;;;23.00;99.90;;;;;;5099503;28;20397;-90
2023/09/07 10:08:09;;;;;;;16.00;6.47;;;23.00;99.90;;;;;;5104389;28;20045;-89
2023/09/07 10:10:37;;;;;;;9.55;5.07;;;23.00;99.90;;;;;;5100176;28;20305;-91
2023/09/07 10:13:03;;;;;;;13.90;6.00;;;23.00;99.90;;;;;;5088131;28;20031;-89
2023/09/07 10:15:29;;;;;;;16.75;6.30;;;23.10;99.90;;;;;;5101305;28;20108;-89
2023/09/07 10:18:18;;;;;;;12.52;5.10;;;23.20;99.90;;;;;;5103738;28;20427;-89
2023/09/07 10:20:59;;;;;;;17.33;5.88;;;23.20;99.90;;;;;;5098129;28;20030;-91
2023/09/07 10:23:45;;;;;;;15.90;5.40;;;23.30;99.90;;;;;;5099621;28;20062;-87
2023/09/07 10:26:18;;;;;;;20.13;5.90;;;23.40;99.90;;;;;;5095633;28;20128;-87
2023/09/07 10:28:45;;;;;;;10.02;4.65;;;23.50;99.90;;;;;;5100351;28;20480;-89
2023/09/07 10:31:15;;;;;;;11.30;4.90;;;23.50;99.90;;;;;;5104398;28;20091;-89
2023/09/07 10:33:41;;;;;;;7.55;4.63;;;23.60;99.90;;;;;;5104512;28;20032;-86
2023/09/07 10:36:07;;;;;;;18.08;5.13;;;23.60;99.90;;;;;;5104917;28;20034;-90
2023/09/07 10:38:34;;;;;;;16.73;5.25;;;23.70;99.90;;;;;;5103734;28;20373;-92
2023/09/07 10:41:02;;;;;;;11.30;4.72;;;23.80;99.90;;;;;;5096520;28;20027;-89
2023/09/07 10:43:32;;;;;;;8.32;4.20;;;23.80;99.90;;;;;;5105060;28;20073;-91
2023/09/07 10:46:00;;;;;;;12.35;4.22;;;23.90;99.90;;;;;;5103922;28;20035;-90
2023/09/07 10:48:28;;;;;;;7.28;4.63;;;23.90;99.90;;;;;;5104745;28;20051;-90
2023/09/07 10:50:55;;;;;;;5.55;3.75;;;24.00;99.90;;;;;;5103032;28;20051;-90
2023/09/07 10:53:30;;;;;;;10.65;4.43;;;24.00;99.90;;;;;;5095546;28;20031;-86
2023/09/07 10:56:06;;;;;;;13.23;5.30;;;24.10;99.90;;;;;;5101535;28;20299;-89
2023/09/07 10:58:35;;;;;;;18.70;4.45;;;24.10;99.90;;;;;;5100739;28;20031;-93
2023/09/07 11:01:07;;;;;;;19.73;4.90;;;24.20;99.90;;;;;;5104257;28;20031;-86
2023/09/07 11:03:33;;;;;;;14.85;5.38;;;24.20;99.90;;;;;;5107320;28;20110;-90
2023/09/07 11:06:19;;;;;;;8.27;4.72;;;24.30;99.90;;;;;;5108630;28;20492;-90
2023/09/07 11:08:46;;;;;;;14.30;4.68;;;24.40;99.90;;;;;;5098652;28;20039;-89
2023/09/07 11:11:12;;;;;;;7.53;4.72;;;24.40;99.90;;;;;;5108057;28;20408;-93
2023/09/07 11:13:38;;;;;;;7.32;4.20;;;24.50;99.90;;;;;;5106902;28;20472;-92
2023/09/07 11:16:08;;;;;;;6.75;4.57;;;24.50;99.90;;;;;;5108094;28;20028;-90
2023/09/07 11:18:36;;;;;;;10.40;4.70;;;24.50;99.90;;;;;;5105183;28;20077;-92
2023/09/07 11:21:03;;;;;;;7.47;4.38;;;24.50;99.90;;;;;;5105464;28;20016;-89
2023/09/07 11:23:40;;;;;;;9.80;4.82;;;24.60;99.90;;;;;;5106548;28;20110;-87
2023/09/07 11:26:07;;;;;;;10.82;4.63;;;24.60;99.90;;;;;;5102235;28;20039;-92
2023/09/07 11:28:33;;;;;;;21.55;5.07;;;24.70;99.90;;;;;;5105898;28;20055;-92
2023/09/07 11:30:59;;;;;;;10.30;4.10;;;24.70;99.90;;;;;;5105182;28;20070;-91
2023/09/07 11:33:26;;;;;;;15.25;4.35;;;24.70;99.90;;;;;;5098267;28;20023;-92
2023/09/07 11:35:54;;;;;;;8.95;3.92;;;24.80;99.90;;;;;;5101082;28;20027;-88
2023/09/07 11:38:22;;;;;;;8.27;4.53;;;24.80;99.90;;;;;;5105130;28;20084;-90
2023/09/07 11:40:47;;;;;;;6.53;4.35;;;24.80;99.90;;;;;;5098478;28;20032;-90
2023/09/07 11:43:15;;;;;;;7.47;4.10;;;24.90;99.90;;;;;;5107728;28;20030;-88
2023/09/07 11:45:42;;;;;;;7.95;4.75;;;24.90;99.90;;;;;;5107161;28;21010;-91
2023/09/07 11:48:11;;;;;;;16.25;5.55;;;24.90;99.90;;;;;;5095030;28;20465;-90
2023/09/07 11:50:38;;;;;;;12.43;5.15;;;24.90;99.90;;;;;;5103259;28;20100;-92
2023/09/07 11:53:04;;;;;;;15.85;5.47;;;24.90;99.90;;;;;;5107965;28;20033;-90
2023/09/07 11:55:30;;;;;;;11.57;5.57;;;25.00;99.90;;;;;;5106397;28;20099;-90
2023/09/07 11:57:55;;;;;;;10.80;4.97;;;25.00;99.90;;;;;;5105418;28;20084;-87
2023/09/07 12:00:22;;;;;;;10.15;4.95;;;25.00;99.90;;;;;;5104681;28;20040;-92
2023/09/07 12:02:48;;;;;;;15.60;5.85;;;25.10;99.90;;;;;;5105423;27;20023;-92
2023/09/07 12:05:15;;;;;;;12.00;5.32;;;25.00;99.90;;;;;;5098089;28;20057;-89
2023/09/07 12:07:45;;;;;;;12.25;5.72;;;25.00;99.90;;;;;;5106727;28;20042;-86
2023/09/07 12:10:13;;;;;;;20.33;6.63;;;25.10;99.90;;;;;;5107872;28;20123;-92
2023/09/07 12:12:42;;;;;;;16.92;5.93;;;25.10;99.90;;;;;;5107175;28;20044;-93
2023/09/07 12:15:12;;;;;;;10.13;4.97;;;25.10;99.90;;;;;;5108190;28;20027;-87
2023/09/07 12:17:38;;;;;;;19.10;5.53;;;25.10;99.90;;;;;;5107189;28;20026;-92
2023/09/07 12:20:08;;;;;;;9.93;5.10;;;25.10;99.90;;;;;;5108071;28;20023;-94
2023/09/07 12:22:35;;;;;;;17.77;5.65;;;25.20;99.90;;;;;;5107033;28;20051;-90
2023/09/07 12:25:02;;;;;;;4.95;4.30;;;25.20;99.90;;;;;;5104795;28;20031;-90
2023/09/07 12:27:27;;;;;;;10.32;4.53;;;25.30;99.90;;;;;;5100658;28;20035;-91
2023/09/07 12:29:53;;;;;;;6.35;4.53;;;25.30;99.90;;;;;;5098381;28;20032;-91
2023/09/07 12:32:19;;;;;;;11.68;4.95;;;25.40;99.90;;;;;;5104363;28;20043;-92
2023/09/07 12:34:44;;;;;;;10.55;4.88;;;25.30;99.90;;;;;;5106092;28;20058;-89
2023/09/07 12:37:13;;;;;;;8.95;4.32;;;25.40;99.90;;;;;;5104343;28;20038;-92
2023/09/07 12:39:38;;;;;;;9.57;4.47;;;25.50;99.90;;;;;;5106700;28;20035;-91